Time;durP1;ratioP1;P1;durP2;ratioP2;P2;SDS_P1;SDS_P2;PMS_P1;PMS_P2;Temp;Humidity;BMP_temperature;BMP_pressure;BME280_temperature;BME280_humidity;BME280_pressure;Samples;Min_cycle;Max_cycle;Signal;HPM_P1;HPM_P2
2021/03/31 00:02:04;;;;;;;10.97;6.30;;;;;;;;;;5036495;28;20849;-77
2021/03/31 00:04:30;;;;;;;10.80;7.00;;;;;;;;;;5035822;28;20545;-78
2021/03/31 00:06:56;;;;;;;8.30;5.50;;;;;;;;;;5038986;28;20533;-77
2021/03/31 00:09:22;;;;;;;8.70;6.17;;;;;;;;;;5040447;28;20440;-77
2021/03/31 00:11:48;;;;;;;9.87;6.10;;;;;;;;;;5039945;28;20470;-77
2021/03/31 00:14:15;;;;;;;8.43;5.80;;;;;;;;;;5038723;28;20476;-78
2021/03/31 00:16:41;;;;;;;9.37;5.97;;;;;;;;;;5039888;28;20423;-76
2021/03/31 00:19:07;;;;;;;11.60;7.07;;;;;;;;;;5039543;28;20474;-76
2021/03/31 00:21:33;;;;;;;10.03;5.80;;;;;;;;;;5021827;28;20443;-78
2021/03/31 00:23:59;;;;;;;8.23;5.97;;;;;;;;;;5039759;28;20462;-77
2021/03/31 00:26:25;;;;;;;11.40;5.27;;;;;;;;;;5039548;28;20798;-77
2021/03/31 00:28:51;;;;;;;14.00;6.27;;;;;;;;;;5021246;28;20435;-77
2021/03/31 00:31:17;;;;;;;8.27;5.20;;;;;;;;;;5040623;28;20965;-78
2021/03/31 00:33:43;;;;;;;9.20;5.93;;;;;;;;;;5038886;28;20486;-78
2021/03/31 00:36:09;;;;;;;8.10;5.70;;;;;;;;;;5030044;28;20439;-77
2021/03/31 00:38:35;;;;;;;9.20;6.97;;;;;;;;;;5038598;28;20496;-77
2021/03/31 00:41:02;;;;;;;6.00;4.90;;;;;;;;;;5039592;28;20427;-78
2021/03/31 00:43:28;;;;;;;10.07;6.27;;;;;;;;;;5039574;28;20678;-78
2021/03/31 00:45:54;;;;;;;9.40;6.07;;;;;;;;;;5038502;28;20435;-77
2021/03/31 00:48:20;;;;;;;8.10;6.10;;;;;;;;;;5037996;28;20471;-76
2021/03/31 00:50:49;;;;;;;7.30;6.30;;;;;;;;;;5034761;28;20459;-77
2021/03/31 00:53:16;;;;;;;7.00;5.87;;;;;;;;;;5038515;28;20552;-78
2021/03/31 00:55:42;;;;;;;10.77;6.63;;;;;;;;;;5038580;28;20565;-77
2021/03/31 00:58:08;;;;;;;9.63;6.87;;;;;;;;;;5037987;28;20427;-77
2021/03/31 01:00:35;;;;;;;12.13;6.07;;;;;;;;;;5021154;28;20450;-78
2021/03/31 01:03:01;;;;;;;9.43;5.50;;;;;;;;;;5020631;28;20428;-78
2021/03/31 01:05:28;;;;;;;6.93;5.10;;;;;;;;;;5037820;28;20891;-77
2021/03/31 01:07:55;;;;;;;9.80;6.20;;;;;;;;;;5037564;28;20426;-76
2021/03/31 01:10:24;;;;;;;8.30;5.60;;;;;;;;;;5027168;28;20470;-76
2021/03/31 01:12:50;;;;;;;8.00;6.40;;;;;;;;;;5021076;28;20439;-77
2021/03/31 01:15:32;;;;;;;10.40;5.77;;;;;;;;;;5038588;28;20976;-77
2021/03/31 01:18:07;;;;;;;7.63;4.97;;;;;;;;;;5039307;28;20514;-77
2021/03/31 01:20:49;;;;;;;9.03;5.87;;;;;;;;;;5037073;28;20432;-77
2021/03/31 01:23:33;;;;;;;12.00;7.57;;;;;;;;;;5038748;28;20481;-76
2021/03/31 01:26:05;;;;;;;7.67;5.90;;;;;;;;;;5039082;28;20542;-77
2021/03/31 01:28:45;;;;;;;11.53;7.30;;;;;;;;;;5037652;28;20442;-77
2021/03/31 01:31:24;;;;;;;7.77;6.27;;;;;;;;;;5038403;28;20514;-76
2021/03/31 01:34:02;;;;;;;11.30;6.63;;;;;;;;;;5039555;28;20482;-77
2021/03/31 01:36:29;;;;;;;9.93;6.40;;;;;;;;;;5039571;28;20515;-76
2021/03/31 01:38:58;;;;;;;10.90;7.17;;;;;;;;;;5020602;28;20434;-76
2021/03/31 01:41:25;;;;;;;7.57;6.33;;;;;;;;;;5020565;28;21027;-76
2021/03/31 01:43:53;;;;;;;10.57;7.30;;;;;;;;;;5037996;28;20440;-76
2021/03/31 01:46:22;;;;;;;10.67;6.27;;;;;;;;;;5038621;28;20438;-76
2021/03/31 01:48:48;;;;;;;11.10;7.97;;;;;;;;;;5021167;28;20500;-78
2021/03/31 01:51:15;;;;;;;10.37;6.63;;;;;;;;;;5039112;28;20523;-77
2021/03/31 01:53:41;;;;;;;10.30;6.53;;;;;;;;;;5038023;28;20542;-77
2021/03/31 01:56:07;;;;;;;8.50;6.47;;;;;;;;;;5038120;28;20443;-76
2021/03/31 01:58:35;;;;;;;16.30;7.63;;;;;;;;;;5039571;28;20827;-77
2021/03/31 02:01:01;;;;;;;10.83;6.93;;;;;;;;;;5039709;28;20442;-76
2021/03/31 02:03:29;;;;;;;8.90;6.77;;;;;;;;;;5024808;28;20507;-76
2021/03/31 02:05:55;;;;;;;11.80;7.87;;;;;;;;;;5041335;28;20917;-77
2021/03/31 02:08:22;;;;;;;10.60;6.47;;;;;;;;;;5041515;28;20522;-76
2021/03/31 02:10:49;;;;;;;10.90;6.77;;;;;;;;;;5041711;28;20445;-76
2021/03/31 02:13:15;;;;;;;11.40;7.50;;;;;;;;;;5040547;28;20462;-76
2021/03/31 02:15:41;;;;;;;14.83;7.27;;;;;;;;;;5041784;28;20454;-76
2021/03/31 02:18:09;;;;;;;9.80;7.03;;;;;;;;;;5041678;28;20518;-77
2021/03/31 02:20:35;;;;;;;12.33;7.67;;;;;;;;;;5041127;28;20531;-77
2021/03/31 02:23:02;;;;;;;15.53;7.07;;;;;;;;;;5042809;28;20986;-77
2021/03/31 02:25:28;;;;;;;11.40;6.80;;;;;;;;;;5042529;28;20514;-77
2021/03/31 02:27:54;;;;;;;14.23;6.70;;;;;;;;;;5041620;28;20431;-76
2021/03/31 02:30:22;;;;;;;9.67;7.43;;;;;;;;;;5041232;28;20791;-77
2021/03/31 02:32:50;;;;;;;10.20;6.90;;;;;;;;;;5041203;28;20435;-77
2021/03/31 02:35:16;;;;;;;9.90;7.23;;;;;;;;;;5041462;28;20457;-77
2021/03/31 02:37:45;;;;;;;9.17;6.37;;;;;;;;;;5041679;28;20784;-77
2021/03/31 02:40:12;;;;;;;13.00;6.77;;;;;;;;;;5042294;28;20427;-76
2021/03/31 02:42:39;;;;;;;10.57;6.70;;;;;;;;;;5040582;28;20434;-77
2021/03/31 02:45:06;;;;;;;13.43;7.00;;;;;;;;;;5042468;28;20449;-76
2021/03/31 02:47:36;;;;;;;7.90;6.70;;;;;;;;;;5041533;28;20488;-76
2021/03/31 02:50:03;;;;;;;10.60;5.90;;;;;;;;;;5035616;28;20445;-77
2021/03/31 02:52:31;;;;;;;9.47;5.77;;;;;;;;;;5042029;28;20505;-77
2021/03/31 02:54:57;;;;;;;9.30;6.07;;;;;;;;;;5022855;28;20483;-77
2021/03/31 02:57:23;;;;;;;11.17;5.80;;;;;;;;;;5040860;28;20444;-77
2021/03/31 02:59:50;;;;;;;9.80;6.07;;;;;;;;;;5041154;28;20955;-76
2021/03/31 03:02:18;;;;;;;8.20;6.63;;;;;;;;;;5039823;28;20435;-77
2021/03/31 03:04:48;;;;;;;9.07;5.80;;;;;;;;;;5041130;28;20450;-78
2021/03/31 03:07:14;;;;;;;16.27;7.67;;;;;;;;;;5040748;28;20446;-77
2021/03/31 03:09:41;;;;;;;10.33;6.73;;;;;;;;;;5040926;28;20589;-78
2021/03/31 03:12:07;;;;;;;13.63;8.47;;;;;;;;;;5040442;28;20433;-77
2021/03/31 03:14:34;;;;;;;14.17;7.37;;;;;;;;;;5040153;28;20498;-77
2021/03/31 03:17:00;;;;;;;15.13;7.83;;;;;;;;;;5041580;28;20791;-76
2021/03/31 03:19:26;;;;;;;14.33;7.93;;;;;;;;;;5041247;28;20596;-77
2021/03/31 03:21:52;;;;;;;11.83;7.80;;;;;;;;;;5040513;28;21020;-75
2021/03/31 03:24:18;;;;;;;12.83;7.13;;;;;;;;;;5038827;28;20439;-76
2021/03/31 03:26:44;;;;;;;11.47;8.00;;;;;;;;;;5023017;28;20468;-77
2021/03/31 03:29:10;;;;;;;10.57;7.20;;;;;;;;;;5041015;28;20434;-77
2021/03/31 03:31:39;;;;;;;13.33;8.03;;;;;;;;;;5040062;28;20509;-77
2021/03/31 03:34:09;;;;;;;12.83;7.90;;;;;;;;;;5041012;28;20493;-77
2021/03/31 03:36:36;;;;;;;9.33;7.10;;;;;;;;;;5040522;28;20539;-77
2021/03/31 03:39:04;;;;;;;11.23;8.20;;;;;;;;;;5040425;28;20440;-76
2021/03/31 03:41:30;;;;;;;9.70;7.30;;;;;;;;;;5038659;28;20773;-78
2021/03/31 03:43:56;;;;;;;12.60;7.20;;;;;;;;;;5039403;28;20434;-78
2021/03/31 03:46:22;;;;;;;11.90;6.97;;;;;;;;;;5039991;28;20768;-76
2021/03/31 03:48:49;;;;;;;9.27;6.93;;;;;;;;;;5021937;28;20435;-77
2021/03/31 03:51:15;;;;;;;11.10;6.97;;;;;;;;;;5040584;28;20433;-76
2021/03/31 03:53:42;;;;;;;10.53;6.70;;;;;;;;;;5040583;28;20537;-77
2021/03/31 03:56:11;;;;;;;11.20;7.30;;;;;;;;;;5040165;28;20434;-77
2021/03/31 03:58:37;;;;;;;9.07;7.00;;;;;;;;;;5020372;28;20438;-76
2021/03/31 04:01:03;;;;;;;16.10;6.53;;;;;;;;;;5039986;28;20448;-77
2021/03/31 04:03:29;;;;;;;8.50;6.90;;;;;;;;;;5039888;28;20966;-77
2021/03/31 04:05:55;;;;;;;11.27;7.10;;;;;;;;;;5039807;28;20462;-76
2021/03/31 04:08:21;;;;;;;9.13;5.90;;;;;;;;;;5039323;28;20809;-77
2021/03/31 04:10:50;;;;;;;9.37;6.40;;;;;;;;;;5039811;28;20464;-77
2021/03/31 04:13:17;;;;;;;10.70;6.50;;;;;;;;;;5039490;28;20468;-76
2021/03/31 04:15:44;;;;;;;8.23;6.13;;;;;;;;;;5040407;28;20937;-76
2021/03/31 04:18:11;;;;;;;9.83;6.87;;;;;;;;;;5039017;28;20451;-76
2021/03/31 04:20:37;;;;;;;12.67;5.70;;;;;;;;;;5039336;28;20528;-77
2021/03/31 04:23:03;;;;;;;9.90;6.43;;;;;;;;;;5040110;28;20515;-76
2021/03/31 04:25:29;;;;;;;9.47;6.60;;;;;;;;;;5038806;28;20524;-77
2021/03/31 04:27:58;;;;;;;9.33;6.70;;;;;;;;;;5020348;28;20537;-77
2021/03/31 04:30:24;;;;;;;9.93;7.23;;;;;;;;;;5039002;28;20504;-77
2021/03/31 04:32:51;;;;;;;13.87;7.33;;;;;;;;;;5018791;28;20452;-76
2021/03/31 04:35:18;;;;;;;13.27;7.93;;;;;;;;;;5039624;28;20590;-76
2021/03/31 04:37:44;;;;;;;11.13;7.00;;;;;;;;;;5039644;28;20434;-76
2021/03/31 04:40:12;;;;;;;10.07;7.50;;;;;;;;;;5043585;28;20440;-76
2021/03/31 04:42:38;;;;;;;16.50;6.90;;;;;;;;;;5038407;28;20499;-76
2021/03/31 04:45:05;;;;;;;13.20;7.20;;;;;;;;;;5039870;28;20481;-75
2021/03/31 04:47:32;;;;;;;10.60;6.80;;;;;;;;;;5039500;28;20504;-77
2021/03/31 04:49:58;;;;;;;10.00;6.53;;;;;;;;;;5034749;28;20843;-76
2021/03/31 04:52:25;;;;;;;12.70;7.83;;;;;;;;;;5035636;28;20449;-76
2021/03/31 04:54:51;;;;;;;10.87;7.50;;;;;;;;;;5039455;28;20990;-77
2021/03/31 04:57:17;;;;;;;10.87;7.40;;;;;;;;;;5039687;28;20462;-77
2021/03/31 04:59:43;;;;;;;13.97;7.03;;;;;;;;;;5022622;28;20474;-77
2021/03/31 05:02:09;;;;;;;10.13;6.83;;;;;;;;;;5038554;28;20522;-76
2021/03/31 05:04:35;;;;;;;15.13;6.77;;;;;;;;;;5040408;28;20450;-77
2021/03/31 05:07:01;;;;;;;8.90;7.10;;;;;;;;;;5020875;28;20432;-76
2021/03/31 05:09:26;;;;;;;11.43;8.27;;;;;;;;;;5038574;28;20474;-76
2021/03/31 05:11:52;;;;;;;12.47;7.00;;;;;;;;;;5037736;28;20465;-76
2021/03/31 05:14:18;;;;;;;10.43;7.17;;;;;;;;;;5040135;28;20482;-77
2021/03/31 05:16:44;;;;;;;11.43;6.80;;;;;;;;;;5049986;28;20912;-75
2021/03/31 05:19:10;;;;;;;12.80;6.70;;;;;;;;;;5051855;28;20451;-76
2021/03/31 05:21:36;;;;;;;12.33;7.67;;;;;;;;;;5038215;28;20439;-76
2021/03/31 05:24:04;;;;;;;11.87;6.63;;;;;;;;;;5040633;28;20534;-77
2021/03/31 05:26:30;;;;;;;10.33;6.90;;;;;;;;;;5052292;28;20433;-76
2021/03/31 05:28:56;;;;;;;9.47;7.40;;;;;;;;;;5042087;28;20529;-77
2021/03/31 05:31:22;;;;;;;11.70;7.60;;;;;;;;;;5034138;28;20883;-76
2021/03/31 05:33:48;;;;;;;12.33;7.50;;;;;;;;;;5040597;28;20464;-77
2021/03/31 05:36:14;;;;;;;13.87;8.53;;;;;;;;;;5040815;28;20524;-77
2021/03/31 05:38:40;;;;;;;18.10;8.40;;;;;;;;;;5025105;28;20445;-78
2021/03/31 05:41:06;;;;;;;15.60;7.73;;;;;;;;;;5023995;28;20795;-77
2021/03/31 05:43:32;;;;;;;27.67;8.87;;;;;;;;;;5041693;28;20438;-77
2021/03/31 05:45:58;;;;;;;18.97;7.77;;;;;;;;;;5043040;28;20426;-77
2021/03/31 05:48:25;;;;;;;17.47;9.10;;;;;;;;;;5043298;28;20442;-78
2021/03/31 05:50:51;;;;;;;17.70;7.30;;;;;;;;;;5040439;28;20437;-77
2021/03/31 05:53:17;;;;;;;36.77;11.00;;;;;;;;;;5049374;28;20950;-75
2021/03/31 05:55:43;;;;;;;16.33;8.03;;;;;;;;;;5055795;28;20510;-77
2021/03/31 05:58:09;;;;;;;18.87;9.00;;;;;;;;;;5044879;28;20432;-78
2021/03/31 06:00:35;;;;;;;13.70;8.07;;;;;;;;;;5048532;28;20452;-78
2021/03/31 06:03:05;;;;;;;18.20;7.70;;;;;;;;;;5044214;28;20513;-78
2021/03/31 06:05:32;;;;;;;15.67;7.87;;;;;;;;;;5049129;28;20793;-78
2021/03/31 06:07:58;;;;;;;15.80;7.80;;;;;;;;;;5055377;28;20507;-77
2021/03/31 06:10:26;;;;;;;17.63;8.90;;;;;;;;;;5039950;28;20450;-78
2021/03/31 06:12:54;;;;;;;12.40;7.27;;;;;;;;;;5048338;28;20476;-78
2021/03/31 06:15:33;;;;;;;19.07;7.97;;;;;;;;;;5036808;28;20501;-77
2021/03/31 06:18:01;;;;;;;11.40;6.80;;;;;;;;;;5050183;28;20425;-77
2021/03/31 06:20:41;;;;;;;16.33;7.23;;;;;;;;;;5041881;28;20862;-78
2021/03/31 06:23:20;;;;;;;10.87;5.70;;;;;;;;;;5024509;28;20484;-77
2021/03/31 06:25:54;;;;;;;15.60;8.53;;;;;;;;;;5032558;28;20547;-77
2021/03/31 06:28:31;;;;;;;23.70;8.30;;;;;;;;;;5040522;28;20465;-77
2021/03/31 06:31:10;;;;;;;11.17;7.37;;;;;;;;;;5041523;28;20438;-77
2021/03/31 06:33:38;;;;;;;10.57;6.30;;;;;;;;;;5042335;28;20498;-77
2021/03/31 06:36:05;;;;;;;12.33;7.00;;;;;;;;;;5042715;28;20505;-76
2021/03/31 06:38:32;;;;;;;8.00;6.63;;;;;;;;;;5043170;28;20490;-77
2021/03/31 06:41:10;;;;;;;11.57;7.37;;;;;;;;;;5030081;28;20953;-76
2021/03/31 06:43:51;;;;;;;11.03;6.90;;;;;;;;;;5044013;28;20449;-76
2021/03/31 06:49:11;;;;;;;9.87;7.40;;;;;;;;;;5030720;28;20513;-76
2021/03/31 06:51:37;;;;;;;12.30;6.70;;;;;;;;;;5029782;28;20448;-76
2021/03/31 06:54:16;;;;;;;24.40;7.90;;;;;;;;;;5031173;28;20584;-76
2021/03/31 06:56:44;;;;;;;10.50;7.07;;;;;;;;;;5033142;28;20450;-76
2021/03/31 06:59:11;;;;;;;17.07;8.00;;;;;;;;;;5021155;28;20440;-78
2021/03/31 07:01:37;;;;;;;14.50;8.83;;;;;;;;;;5022511;28;20447;-76
2021/03/31 07:04:05;;;;;;;14.63;7.90;;;;;;;;;;5021395;28;20437;-75
2021/03/31 07:06:31;;;;;;;14.03;8.20;;;;;;;;;;5022843;28;20444;-76
2021/03/31 07:08:57;;;;;;;16.97;7.70;;;;;;;;;;5026057;28;20433;-75
2021/03/31 07:11:39;;;;;;;17.50;9.07;;;;;;;;;;5021335;28;20447;-77
2021/03/31 07:14:06;;;;;;;14.00;8.03;;;;;;;;;;5021567;28;20534;-77
2021/03/31 07:16:33;;;;;;;22.07;8.40;;;;;;;;;;5023692;28;20520;-77
2021/03/31 07:18:59;;;;;;;23.93;10.33;;;;;;;;;;5023033;28;20452;-78
2021/03/31 07:21:25;;;;;;;20.70;9.60;;;;;;;;;;5023806;28;20855;-77
2021/03/31 07:23:52;;;;;;;15.00;7.87;;;;;;;;;;5026803;28;20526;-78
2021/03/31 07:26:22;;;;;;;27.13;9.20;;;;;;;;;;5031502;28;20432;-78
2021/03/31 07:28:51;;;;;;;17.50;8.60;;;;;;;;;;5039485;28;20464;-78
2021/03/31 07:31:26;;;;;;;9.20;7.13;;;;;;;;;;5025072;28;20430;-78
2021/03/31 07:34:11;;;;;;;25.47;8.50;;;;;;;;;;5028640;28;20491;-78
2021/03/31 07:36:38;;;;;;;12.63;7.17;;;;;;;;;;5033826;28;20462;-78
2021/03/31 07:39:06;;;;;;;16.93;8.27;;;;;;;;;;5018654;28;20477;-77
2021/03/31 07:41:35;;;;;;;16.60;8.60;;;;;;;;;;5034055;28;21015;-77
2021/03/31 07:44:01;;;;;;;18.43;8.17;;;;;;;;;;5046492;28;20462;-78
2021/03/31 07:46:29;;;;;;;11.90;7.40;;;;;;;;;;5039367;28;20477;-78
2021/03/31 07:48:56;;;;;;;19.60;8.67;;;;;;;;;;5027400;28;20765;-78
2021/03/31 07:51:26;;;;;;;18.70;9.00;;;;;;;;;;5030278;28;21009;-78
2021/03/31 07:53:53;;;;;;;21.17;8.80;;;;;;;;;;5023500;28;20546;-78
2021/03/31 07:56:24;;;;;;;13.30;7.70;;;;;;;;;;5018960;28;20432;-78
2021/03/31 07:59:09;;;;;;;30.53;8.50;;;;;;;;;;5018481;28;20448;-78
2021/03/31 08:01:37;;;;;;;17.03;7.30;;;;;;;;;;5018395;28;20849;-79
2021/03/31 08:04:04;;;;;;;16.83;9.27;;;;;;;;;;5020883;28;20462;-78
2021/03/31 08:06:30;;;;;;;26.77;8.13;;;;;;;;;;5020440;28;20468;-79
2021/03/31 08:08:57;;;;;;;10.03;6.47;;;;;;;;;;5020282;28;20455;-77
2021/03/31 08:11:39;;;;;;;10.57;6.60;;;;;;;;;;5021379;28;20446;-77
2021/03/31 08:14:06;;;;;;;8.70;6.37;;;;;;;;;;5014338;28;20488;-77
2021/03/31 08:16:34;;;;;;;8.70;7.30;;;;;;;;;;5019349;28;20562;-78
2021/03/31 08:19:01;;;;;;;9.00;7.10;;;;;;;;;;5014518;28;20460;-78
2021/03/31 08:21:28;;;;;;;11.07;7.50;;;;;;;;;;5020201;28;20440;-79
2021/03/31 08:23:57;;;;;;;10.50;6.37;;;;;;;;;;5020489;28;20451;-78
2021/03/31 08:26:31;;;;;;;13.30;6.90;;;;;;;;;;5021268;28;20444;-78
2021/03/31 08:28:58;;;;;;;8.03;5.97;;;;;;;;;;5023162;28;20448;-79
2021/03/31 08:31:25;;;;;;;7.73;6.93;;;;;;;;;;5022121;28;20537;-78
2021/03/31 08:33:51;;;;;;;9.67;7.07;;;;;;;;;;5020933;28;20479;-79
2021/03/31 08:36:17;;;;;;;9.20;7.30;;;;;;;;;;5020200;28;20455;-78
2021/03/31 08:38:48;;;;;;;9.10;6.90;;;;;;;;;;5019828;28;20478;-78
2021/03/31 08:41:25;;;;;;;10.47;8.13;;;;;;;;;;5022437;28;20445;-77
2021/03/31 08:43:52;;;;;;;22.93;9.40;;;;;;;;;;5018687;28;20462;-78
2021/03/31 08:46:31;;;;;;;20.10;7.97;;;;;;;;;;5019059;28;20507;-77
2021/03/31 08:48:58;;;;;;;9.83;7.53;;;;;;;;;;5024254;28;20442;-77
2021/03/31 08:51:24;;;;;;;12.10;7.67;;;;;;;;;;5021732;28;20459;-78
2021/03/31 08:53:52;;;;;;;15.17;8.60;;;;;;;;;;5018462;28;20495;-78
2021/03/31 08:56:22;;;;;;;10.17;8.10;;;;;;;;;;5020946;28;20440;-78
2021/03/31 08:58:50;;;;;;;13.20;7.30;;;;;;;;;;5021257;28;20448;-77
2021/03/31 09:01:30;;;;;;;12.83;7.83;;;;;;;;;;5018338;28;20455;-76
2021/03/31 09:04:14;;;;;;;8.10;6.83;;;;;;;;;;5018632;28;20781;-76
2021/03/31 09:06:40;;;;;;;15.33;8.47;;;;;;;;;;5018372;28;20425;-77
2021/03/31 09:09:06;;;;;;;11.60;8.17;;;;;;;;;;5018612;28;20495;-77
2021/03/31 09:11:32;;;;;;;9.53;7.50;;;;;;;;;;5023911;28;20431;-76
2021/03/31 09:14:15;;;;;;;12.17;7.30;;;;;;;;;;5003891;28;20570;-77
2021/03/31 09:16:48;;;;;;;7.47;6.47;;;;;;;;;;5022213;28;20436;-78
2021/03/31 09:19:14;;;;;;;7.43;6.57;;;;;;;;;;5020877;28;20530;-78
2021/03/31 09:21:40;;;;;;;9.53;7.33;;;;;;;;;;5021462;28;20942;-78
2021/03/31 09:24:12;;;;;;;15.07;7.17;;;;;;;;;;5022017;28;20459;-77
2021/03/31 09:26:38;;;;;;;11.20;7.87;;;;;;;;;;5021286;28;21009;-76
2021/03/31 09:29:13;;;;;;;11.10;7.20;;;;;;;;;;5020773;28;20450;-80
2021/03/31 09:31:39;;;;;;;9.17;7.60;;;;;;;;;;5019765;28;20508;-78
2021/03/31 09:34:05;;;;;;;9.47;6.63;;;;;;;;;;5020813;28;20836;-77
2021/03/31 09:36:31;;;;;;;13.60;7.60;;;;;;;;;;5016469;28;20616;-78
2021/03/31 09:38:57;;;;;;;6.43;5.70;;;;;;;;;;5020173;28;20556;-78
2021/03/31 09:41:23;;;;;;;10.83;7.13;;;;;;;;;;5021097;28;20973;-78
2021/03/31 09:43:50;;;;;;;8.10;6.47;;;;;;;;;;5018394;28;20951;-79
2021/03/31 09:46:22;;;;;;;6.70;6.00;;;;;;;;;;5024042;28;20926;-78
2021/03/31 09:48:49;;;;;;;7.40;6.73;;;;;;;;;;5023634;28;20459;-79
2021/03/31 09:51:16;;;;;;;9.70;6.27;;;;;;;;;;5002667;28;20436;-79
2021/03/31 09:53:43;;;;;;;8.77;5.77;;;;;;;;;;5025066;28;20515;-78
2021/03/31 09:56:10;;;;;;;8.03;6.63;;;;;;;;;;5023327;28;20450;-79
2021/03/31 09:58:36;;;;;;;11.63;7.10;;;;;;;;;;5024417;28;20782;-80
2021/03/31 10:01:02;;;;;;;9.53;6.17;;;;;;;;;;5026259;28;20534;-79
2021/03/31 10:03:30;;;;;;;8.00;6.87;;;;;;;;;;5023446;28;20449;-79
2021/03/31 10:05:56;;;;;;;7.33;6.57;;;;;;;;;;5018044;28;20436;-79
2021/03/31 10:08:23;;;;;;;7.67;6.93;;;;;;;;;;5003709;28;20490;-79
2021/03/31 10:10:59;;;;;;;8.03;7.23;;;;;;;;;;5009006;28;20455;-79
2021/03/31 10:13:25;;;;;;;10.27;6.60;;;;;;;;;;5021638;28;20423;-78
2021/03/31 10:15:58;;;;;;;7.90;7.10;;;;;;;;;;5021153;28;20464;-77
2021/03/31 10:18:24;;;;;;;7.23;6.47;;;;;;;;;;5036324;28;20439;-78
2021/03/31 10:20:50;;;;;;;8.50;7.57;;;;;;;;;;5022497;28;20439;-77
2021/03/31 10:23:34;;;;;;;6.83;6.13;;;;;;;;;;5022146;28;20476;-78
2021/03/31 10:26:15;;;;;;;9.27;7.00;;;;;;;;;;5037660;28;20796;-78
2021/03/31 10:28:41;;;;;;;9.20;7.57;;;;;;;;;;5033508;28;20450;-79
2021/03/31 10:31:26;;;;;;;9.50;7.37;;;;;;;;;;5033912;28;20766;-78
2021/03/31 10:33:52;;;;;;;10.03;7.00;;;;;;;;;;5033207;28;20475;-78
2021/03/31 10:36:43;;;;;;;11.07;6.93;;;;;;;;;;5014348;28;20502;-78
2021/03/31 10:50:04;;;;;;;7.70;5.80;;;;;;;;;;5028046;28;20516;-77
2021/03/31 10:52:35;;;;;;;8.13;7.30;;;;;;;;;;5025148;28;20516;-77
2021/03/31 10:55:01;;;;;;;9.23;7.10;;;;;;;;;;5023042;28;20582;-77
2021/03/31 10:57:27;;;;;;;9.20;6.97;;;;;;;;;;5025043;28;20566;-77
2021/03/31 10:59:53;;;;;;;11.60;6.67;;;;;;;;;;5027404;28;20486;-78
2021/03/31 11:02:19;;;;;;;9.77;6.87;;;;;;;;;;5029084;28;20480;-78
2021/03/31 11:04:45;;;;;;;9.60;6.60;;;;;;;;;;5018970;28;21035;-78
2021/03/31 11:07:11;;;;;;;10.20;7.30;;;;;;;;;;5023829;28;20565;-78
2021/03/31 11:09:40;;;;;;;14.70;7.37;;;;;;;;;;5020918;28;20444;-78
2021/03/31 11:12:06;;;;;;;10.30;7.47;;;;;;;;;;5025962;28;20435;-78
2021/03/31 11:14:32;;;;;;;8.40;6.73;;;;;;;;;;5030137;28;20530;-78
2021/03/31 11:17:18;;;;;;;7.80;6.80;;;;;;;;;;5033309;28;20444;-78
2021/03/31 11:27:57;;;;;;;9.17;7.50;;;;;;;;;;5020671;28;20431;-79
2021/03/31 11:30:23;;;;;;;10.13;6.43;;;;;;;;;;5016910;28;20440;-78
2021/03/31 11:32:49;;;;;;;9.77;6.90;;;;;;;;;;5002593;28;20443;-78
2021/03/31 11:35:15;;;;;;;11.80;8.00;;;;;;;;;;5017013;28;21338;-78
2021/03/31 11:37:41;;;;;;;9.13;7.87;;;;;;;;;;5020944;28;20460;-78
2021/03/31 11:40:07;;;;;;;8.17;7.37;;;;;;;;;;5023310;28;20509;-78
2021/03/31 11:42:33;;;;;;;11.23;8.97;;;;;;;;;;5023771;28;20867;-78
2021/03/31 11:45:00;;;;;;;9.00;7.00;;;;;;;;;;4995860;28;20972;-77
2021/03/31 11:47:26;;;;;;;8.27;7.37;;;;;;;;;;5018245;28;20435;-77
2021/03/31 11:49:52;;;;;;;8.53;6.90;;;;;;;;;;5009825;28;20449;-78
2021/03/31 11:52:18;;;;;;;12.73;7.10;;;;;;;;;;5016930;28;20801;-77
2021/03/31 11:54:44;;;;;;;9.70;6.60;;;;;;;;;;5013744;28;20526;-79
2021/03/31 11:57:10;;;;;;;10.33;7.00;;;;;;;;;;5014944;28;20594;-77
2021/03/31 11:59:36;;;;;;;10.00;8.07;;;;;;;;;;5014181;28;20449;-78
2021/03/31 12:02:02;;;;;;;12.63;7.67;;;;;;;;;;5011490;28;20452;-77
2021/03/31 12:04:28;;;;;;;9.70;7.10;;;;;;;;;;5022992;28;20447;-77
2021/03/31 12:06:54;;;;;;;8.97;7.13;;;;;;;;;;5022890;28;20921;-79
2021/03/31 12:09:22;;;;;;;10.27;6.87;;;;;;;;;;4993382;28;20447;-77
2021/03/31 12:11:48;;;;;;;8.93;7.50;;;;;;;;;;5017151;28;20451;-77
2021/03/31 12:14:14;;;;;;;8.77;7.83;;;;;;;;;;5019392;28;20958;-76
2021/03/31 12:16:40;;;;;;;16.50;7.80;;;;;;;;;;5022066;28;20447;-79
2021/03/31 12:19:06;;;;;;;8.60;7.60;;;;;;;;;;5023208;28;20451;-78
2021/03/31 12:21:32;;;;;;;8.47;6.70;;;;;;;;;;5023022;28;20878;-78
2021/03/31 12:23:58;;;;;;;10.70;8.60;;;;;;;;;;5017913;28;20542;-78
2021/03/31 12:26:24;;;;;;;8.53;7.63;;;;;;;;;;5027857;28;20922;-78
2021/03/31 12:28:51;;;;;;;9.30;8.10;;;;;;;;;;5027856;28;20431;-78
2021/03/31 12:31:18;;;;;;;10.30;8.17;;;;;;;;;;5019889;28;20802;-79
2021/03/31 12:33:44;;;;;;;10.67;8.73;;;;;;;;;;5026125;28;20474;-79
2021/03/31 12:36:10;;;;;;;9.43;8.43;;;;;;;;;;5025469;28;20498;-77
2021/03/31 12:38:36;;;;;;;9.97;7.30;;;;;;;;;;5024655;28;20498;-78
2021/03/31 12:41:05;;;;;;;9.00;8.10;;;;;;;;;;5018656;28;20974;-79
2021/03/31 12:43:31;;;;;;;10.83;7.87;;;;;;;;;;4999775;28;20449;-78
2021/03/31 12:45:57;;;;;;;8.77;7.80;;;;;;;;;;5015576;28;20491;-79
2021/03/31 12:48:24;;;;;;;8.70;7.30;;;;;;;;;;5023037;28;20455;-79
2021/03/31 12:50:53;;;;;;;10.70;8.60;;;;;;;;;;5002571;28;20930;-79
2021/03/31 12:53:30;;;;;;;13.53;8.43;;;;;;;;;;5020988;28;20494;-78
2021/03/31 12:55:58;;;;;;;17.57;10.73;;;;;;;;;;5024734;28;20964;-79
2021/03/31 12:58:24;;;;;;;15.90;11.23;;;;;;;;;;5022965;28;20435;-78
2021/03/31 13:00:53;;;;;;;12.20;9.60;;;;;;;;;;5012220;28;20453;-78
2021/03/31 13:03:20;;;;;;;12.30;9.83;;;;;;;;;;5025003;28;21006;-77
2021/03/31 13:05:46;;;;;;;19.00;10.03;;;;;;;;;;5032641;28;21190;-78
2021/03/31 13:08:13;;;;;;;15.63;10.40;;;;;;;;;;5026376;28;20439;-78
2021/03/31 13:10:45;;;;;;;10.13;9.13;;;;;;;;;;5017368;28;20432;-78
2021/03/31 13:13:43;;;;;;;11.47;9.33;;;;;;;;;;5022670;28;20443;-78
2021/03/31 13:16:13;;;;;;;12.73;9.90;;;;;;;;;;5026007;28;20850;-78
2021/03/31 13:29:44;;;;;;;13.23;10.13;;;;;;;;;;5030877;28;20531;-77
2021/03/31 13:32:55;;;;;;;10.70;9.43;;;;;;;;;;5031544;28;20446;-77
2021/03/31 13:35:07;;;;;;;12.07;10.27;;;;;;;;;;5019991;28;20501;-78
2021/03/31 13:37:39;;;;;;;12.13;10.80;;;;;;;;;;5030753;28;20458;-79
2021/03/31 13:40:09;;;;;;;13.33;10.53;;;;;;;;;;5029557;28;20450;-78
2021/03/31 13:42:35;;;;;;;15.77;11.57;;;;;;;;;;5030781;28;20790;-79
2021/03/31 13:45:01;;;;;;;11.10;10.03;;;;;;;;;;5013452;28;20446;-78
2021/03/31 13:47:30;;;;;;;11.40;10.30;;;;;;;;;;5026604;28;20518;-78
2021/03/31 13:50:01;;;;;;;17.17;9.60;;;;;;;;;;5025554;28;20443;-78
2021/03/31 13:52:30;;;;;;;13.90;9.10;;;;;;;;;;5022704;28;20840;-78
2021/03/31 13:54:57;;;;;;;12.83;9.70;;;;;;;;;;5022047;28;20495;-78
2021/03/31 13:57:28;;;;;;;12.30;9.70;;;;;;;;;;5023459;28;20542;-77
2021/03/31 13:59:55;;;;;;;14.43;11.00;;;;;;;;;;5018696;28;20526;-77
2021/03/31 14:02:21;;;;;;;13.30;10.70;;;;;;;;;;5015970;28;20438;-77
2021/03/31 14:04:47;;;;;;;11.77;10.30;;;;;;;;;;5015290;28;20610;-78
2021/03/31 14:07:13;;;;;;;17.77;9.80;;;;;;;;;;5017151;28;20438;-77
2021/03/31 14:09:40;;;;;;;11.77;10.20;;;;;;;;;;5018251;28;20943;-78
2021/03/31 14:12:07;;;;;;;18.37;10.37;;;;;;;;;;5023532;28;20439;-77
2021/03/31 14:14:34;;;;;;;14.80;9.80;;;;;;;;;;5026788;28;20490;-78
2021/03/31 14:17:04;;;;;;;11.30;9.27;;;;;;;;;;5024307;28;20428;-77
2021/03/31 14:19:53;;;;;;;12.33;9.53;;;;;;;;;;5022520;28;20445;-78
2021/03/31 14:22:19;;;;;;;9.33;8.33;;;;;;;;;;5019231;28;20742;-79
2021/03/31 14:24:45;;;;;;;12.20;8.50;;;;;;;;;;5026746;28;20439;-78
2021/03/31 14:27:11;;;;;;;8.80;7.50;;;;;;;;;;5013385;28;20444;-78
2021/03/31 14:29:37;;;;;;;14.60;9.80;;;;;;;;;;5011639;28;20489;-78
2021/03/31 14:32:04;;;;;;;10.43;7.87;;;;;;;;;;5030269;28;20936;-78
2021/03/31 14:34:30;;;;;;;10.27;9.27;;;;;;;;;;5031451;28;20502;-78
2021/03/31 14:36:56;;;;;;;10.20;8.90;;;;;;;;;;5025910;28;20955;-77
2021/03/31 14:39:22;;;;;;;8.50;7.57;;;;;;;;;;5028660;28;20451;-78
2021/03/31 14:41:49;;;;;;;12.20;9.60;;;;;;;;;;5027346;28;20447;-77
2021/03/31 14:44:15;;;;;;;11.00;8.60;;;;;;;;;;5027175;28;20450;-77
2021/03/31 14:46:41;;;;;;;10.30;8.60;;;;;;;;;;5023991;28;20443;-77
2021/03/31 14:49:10;;;;;;;13.60;9.40;;;;;;;;;;5027909;28;20807;-76
2021/03/31 14:57:12;;;;;;;10.80;9.33;;;;;;;;;;5029201;28;20494;-77
2021/03/31 14:59:42;;;;;;;17.83;9.60;;;;;;;;;;5028491;28;20448;-78
2021/03/31 15:02:08;;;;;;;10.10;8.10;;;;;;;;;;5027069;28;21552;-78
2021/03/31 15:04:34;;;;;;;12.60;8.50;;;;;;;;;;5025511;28;20451;-79
2021/03/31 15:07:00;;;;;;;10.20;7.80;;;;;;;;;;5025971;28;20860;-77
2021/03/31 15:09:26;;;;;;;15.97;8.27;;;;;;;;;;5030396;28;20534;-78
2021/03/31 15:11:52;;;;;;;13.03;7.83;;;;;;;;;;5031118;28;20432;-78
2021/03/31 15:14:18;;;;;;;15.13;9.10;;;;;;;;;;5031392;28;20471;-78
2021/03/31 15:16:45;;;;;;;10.67;8.93;;;;;;;;;;5029684;28;20479;-77
2021/03/31 15:22:51;;;;;;;8.40;7.60;;;;;;;;;;5010592;28;20779;-79